Terminal Aerodrome Forecast
Issued by NWS Omaha/Valley, NE

Current Version | Previous Version | Text Only | Print | Product List | Glossary On
Versions: 1 2 3 4 5 6 7 8 9 10 11 12 13 14 15 16 17 18 19 20 21 22 23 24 25 26 27
000
FTUS43 KOAX 202320
TAFOFK
TAF
KOFK 202320Z 2100/2124 17015G20KT P6SM SCT100
     FM210900 19007KT P6SM SCT040 BKN110
     FM211500 21008KT P6SM BKN100=

USA.gov is the U.S. government's official web portal to all federal, state and local government web resources and services.